sensor_id;sensor_type;location;lat;lon;timestamp;temperature;humidity
43143;DHT22;28750;59.842;17.584;2024-01-15T00:02:22;-3.50;99.90
43143;DHT22;28750;59.842;17.584;2024-01-15T00:04:49;-3.40;99.90
43143;DHT22;28750;59.842;17.584;2024-01-15T00:07:16;-3.50;99.90
43143;DHT22;28750;59.842;17.584;2024-01-15T00:09:43;-3.40;99.90
43143;DHT22;28750;59.842;17.584;2024-01-15T00:12:10;-3.50;99.90
43143;DHT22;28750;59.842;17.584;2024-01-15T00:14:38;-3.50;99.90
43143;DHT22;28750;59.842;17.584;2024-01-15T00:17:05;-3.40;99.90
43143;DHT22;28750;59.842;17.584;2024-01-15T00:19:32;-3.50;99.90
43143;DHT22;28750;59.842;17.584;2024-01-15T00:21:59;-3.50;99.90
43143;DHT22;28750;59.842;17.584;2024-01-15T00:24:26;-3.50;99.90
43143;DHT22;28750;59.842;17.584;2024-01-15T00:26:53;-3.50;99.90
43143;DHT22;28750;59.842;17.584;2024-01-15T00:29:21;-3.50;99.90
43143;DHT22;28750;59.842;17.584;2024-01-15T00:31:48;-3.50;99.90
43143;DHT22;28750;59.842;17.584;2024-01-15T00:34:15;-3.60;99.90
43143;DHT22;28750;59.842;17.584;2024-01-15T00:36:42;-3.50;99.90
43143;DHT22;28750;59.842;17.584;2024-01-15T00:39:09;-3.50;99.90
43143;DHT22;28750;59.842;17.584;2024-01-15T00:41:37;-3.50;99.90
43143;DHT22;28750;59.842;17.584;2024-01-15T00:44:04;-3.50;99.90
43143;DHT22;28750;59.842;17.584;2024-01-15T00:46:32;-3.60;99.90
43143;DHT22;28750;59.842;17.584;2024-01-15T00:48:59;-3.60;99.90
43143;DHT22;28750;59.842;17.584;2024-01-15T00:51:26;-3.70;99.90
43143;DHT22;28750;59.842;17.584;2024-01-15T00:53:53;-3.70;99.90
43143;DHT22;28750;59.842;17.584;2024-01-15T00:56:20;-3.70;99.90
43143;DHT22;28750;59.842;17.584;2024-01-15T00:58:47;-3.70;99.90
43143;DHT22;28750;59.842;17.584;2024-01-15T01:01:15;-3.80;99.90
43143;DHT22;28750;59.842;17.584;2024-01-15T01:03:42;-3.80;99.90
43143;DHT22;28750;59.842;17.584;2024-01-15T01:06:09;-3.70;99.90
43143;DHT22;28750;59.842;17.584;2024-01-15T01:08:36;-3.70;99.90
43143;DHT22;28750;59.842;17.584;2024-01-15T01:11:03;-3.70;99.90
43143;DHT22;28750;59.842;17.584;2024-01-15T01:13:32;-3.80;99.90
43143;DHT22;28750;59.842;17.584;2024-01-15T01:15:59;-3.80;99.90
43143;DHT22;28750;59.842;17.584;2024-01-15T01:18:26;-3.80;99.90
43143;DHT22;28750;59.842;17.584;2024-01-15T01:20:53;-3.80;99.90
43143;DHT22;28750;59.842;17.584;2024-01-15T01:23:20;-3.80;99.90
43143;DHT22;28750;59.842;17.584;2024-01-15T01:25:48;-3.80;99.90
43143;DHT22;28750;59.842;17.584;2024-01-15T01:28:15;-3.90;99.90
43143;DHT22;28750;59.842;17.584;2024-01-15T01:30:42;-3.90;99.90
43143;DHT22;28750;59.842;17.584;2024-01-15T01:33:09;-3.80;99.90
43143;DHT22;28750;59.842;17.584;2024-01-15T01:35:36;-3.90;99.90
43143;DHT22;28750;59.842;17.584;2024-01-15T01:38:04;-3.90;99.90
43143;DHT22;28750;59.842;17.584;2024-01-15T01:40:31;-4.00;99.90
43143;DHT22;28750;59.842;17.584;2024-01-15T01:42:58;-4.00;99.90
43143;DHT22;28750;59.842;17.584;2024-01-15T01:45:25;-4.00;99.90
43143;DHT22;28750;59.842;17.584;2024-01-15T01:47:52;-4.00;99.90
43143;DHT22;28750;59.842;17.584;2024-01-15T01:50:20;-4.10;99.90
43143;DHT22;28750;59.842;17.584;2024-01-15T01:52:47;-4.00;99.90
43143;DHT22;28750;59.842;17.584;2024-01-15T01:55:15;-4.10;99.90
43143;DHT22;28750;59.842;17.584;2024-01-15T01:57:43;-4.10;99.90
43143;DHT22;28750;59.842;17.584;2024-01-15T02:00:10;-4.10;99.90
43143;DHT22;28750;59.842;17.584;2024-01-15T02:02:38;-4.10;99.90
43143;DHT22;28750;59.842;17.584;2024-01-15T02:05:06;-4.10;99.90
43143;DHT22;28750;59.842;17.584;2024-01-15T02:07:35;-4.10;99.90
43143;DHT22;28750;59.842;17.584;2024-01-15T02:10:02;-4.20;99.90
43143;DHT22;28750;59.842;17.584;2024-01-15T02:12:29;-4.10;99.90
43143;DHT22;28750;59.842;17.584;2024-01-15T02:14:57;-4.10;99.90
43143;DHT22;28750;59.842;17.584;2024-01-15T02:17:24;-4.10;99.90
43143;DHT22;28750;59.842;17.584;2024-01-15T02:19:51;-4.20;99.90
43143;DHT22;28750;59.842;17.584;2024-01-15T02:22:18;-4.20;99.90
43143;DHT22;28750;59.842;17.584;2024-01-15T02:24:45;-4.20;99.90
43143;DHT22;28750;59.842;17.584;2024-01-15T02:27:12;-4.20;99.90
43143;DHT22;28750;59.842;17.584;2024-01-15T02:29:40;-4.20;99.90
43143;DHT22;28750;59.842;17.584;2024-01-15T02:32:08;-4.20;99.90
43143;DHT22;28750;59.842;17.584;2024-01-15T02:34:36;-4.30;99.90
43143;DHT22;28750;59.842;17.584;2024-01-15T02:37:03;-4.30;99.90
43143;DHT22;28750;59.842;17.584;2024-01-15T02:39:30;-4.30;99.90
43143;DHT22;28750;59.842;17.584;2024-01-15T02:41:57;-4.30;99.90
43143;DHT22;28750;59.842;17.584;2024-01-15T02:44:24;-4.30;99.90
43143;DHT22;28750;59.842;17.584;2024-01-15T02:46:51;-4.30;99.90
43143;DHT22;28750;59.842;17.584;2024-01-15T02:49:19;-4.30;99.90
43143;DHT22;28750;59.842;17.584;2024-01-15T02:51:46;-4.30;99.90
43143;DHT22;28750;59.842;17.584;2024-01-15T02:54:13;-4.40;99.90
43143;DHT22;28750;59.842;17.584;2024-01-15T02:56:40;-4.30;99.90
43143;DHT22;28750;59.842;17.584;2024-01-15T02:59:07;-4.40;99.90
43143;DHT22;28750;59.842;17.584;2024-01-15T03:01:35;-4.40;99.90
43143;DHT22;28750;59.842;17.584;2024-01-15T03:04:02;-4.40;99.90
43143;DHT22;28750;59.842;17.584;2024-01-15T03:06:29;-4.40;99.90
43143;DHT22;28750;59.842;17.584;2024-01-15T03:08:56;-4.40;99.90
43143;DHT22;28750;59.842;17.584;2024-01-15T03:11:23;-4.40;99.90
43143;DHT22;28750;59.842;17.584;2024-01-15T03:13:50;-4.40;99.90
43143;DHT22;28750;59.842;17.584;2024-01-15T03:16:17;-4.40;99.90
43143;DHT22;28750;59.842;17.584;2024-01-15T03:18:45;-4.40;99.90
43143;DHT22;28750;59.842;17.584;2024-01-15T03:21:12;-4.40;99.90
43143;DHT22;28750;59.842;17.584;2024-01-15T03:23:39;-4.50;99.90
43143;DHT22;28750;59.842;17.584;2024-01-15T03:26:06;-4.50;99.90
43143;DHT22;28750;59.842;17.584;2024-01-15T03:28:33;-4.50;99.90
43143;DHT22;28750;59.842;17.584;2024-01-15T03:31:01;-4.50;99.90
43143;DHT22;28750;59.842;17.584;2024-01-15T03:33:28;-4.50;99.90
43143;DHT22;28750;59.842;17.584;2024-01-15T03:35:55;-4.50;99.90
43143;DHT22;28750;59.842;17.584;2024-01-15T03:38:23;-4.50;99.90
43143;DHT22;28750;59.842;17.584;2024-01-15T03:40:50;-4.50;99.90
43143;DHT22;28750;59.842;17.584;2024-01-15T03:43:17;-4.50;99.90
43143;DHT22;28750;59.842;17.584;2024-01-15T03:45:44;-4.60;99.90
43143;DHT22;28750;59.842;17.584;2024-01-15T03:48:11;-4.60;99.90
43143;DHT22;28750;59.842;17.584;2024-01-15T03:50:38;-4.60;99.90
43143;DHT22;28750;59.842;17.584;2024-01-15T03:53:05;-4.60;99.90
43143;DHT22;28750;59.842;17.584;2024-01-15T03:55:32;-4.60;99.90
43143;DHT22;28750;59.842;17.584;2024-01-15T03:57:59;-4.60;99.90
43143;DHT22;28750;59.842;17.584;2024-01-15T04:00:26;-4.60;99.90
43143;DHT22;28750;59.842;17.584;2024-01-15T04:02:53;-4.60;99.90
43143;DHT22;28750;59.842;17.584;2024-01-15T04:05:20;-4.60;99.90
43143;DHT22;28750;59.842;17.584;2024-01-15T04:07:47;-4.60;99.90
43143;DHT22;28750;59.842;17.584;2024-01-15T04:10:15;-4.60;99.90
43143;DHT22;28750;59.842;17.584;2024-01-15T04:12:42;-4.60;99.90
43143;DHT22;28750;59.842;17.584;2024-01-15T04:15:09;-4.60;99.90
43143;DHT22;28750;59.842;17.584;2024-01-15T04:17:36;-4.60;99.90
43143;DHT22;28750;59.842;17.584;2024-01-15T04:20:03;-4.60;73.00
43143;DHT22;28750;59.842;17.584;2024-01-15T04:22:30;-4.60;83.10
43143;DHT22;28750;59.842;17.584;2024-01-15T04:24:57;-4.70;14.90
43143;DHT22;28750;59.842;17.584;2024-01-15T04:27:24;-4.70;1.00
43143;DHT22;28750;59.842;17.584;2024-01-15T04:29:51;-4.70;1.00
43143;DHT22;28750;59.842;17.584;2024-01-15T04:32:19;-4.70;1.00
43143;DHT22;28750;59.842;17.584;2024-01-15T04:34:46;-4.60;17.00
43143;DHT22;28750;59.842;17.584;2024-01-15T04:37:16;-4.70;1.00
43143;DHT22;28750;59.842;17.584;2024-01-15T04:39:43;-4.70;1.00
43143;DHT22;28750;59.842;17.584;2024-01-15T04:42:10;-4.70;1.00
43143;DHT22;28750;59.842;17.584;2024-01-15T04:44:37;-4.70;1.00
43143;DHT22;28750;59.842;17.584;2024-01-15T04:47:04;-4.70;1.00
43143;DHT22;28750;59.842;17.584;2024-01-15T04:49:31;-4.80;1.00
43143;DHT22;28750;59.842;17.584;2024-01-15T04:51:58;-4.80;1.00
43143;DHT22;28750;59.842;17.584;2024-01-15T04:54:25;-4.80;1.00
43143;DHT22;28750;59.842;17.584;2024-01-15T04:56:52;-4.80;1.00
43143;DHT22;28750;59.842;17.584;2024-01-15T04:59:19;-4.80;1.00
43143;DHT22;28750;59.842;17.584;2024-01-15T05:01:46;-4.80;1.00
43143;DHT22;28750;59.842;17.584;2024-01-15T05:04:14;-4.80;1.00
43143;DHT22;28750;59.842;17.584;2024-01-15T05:06:41;-4.80;1.00
43143;DHT22;28750;59.842;17.584;2024-01-15T05:09:09;-4.80;1.00
43143;DHT22;28750;59.842;17.584;2024-01-15T05:11:36;-4.80;1.00
43143;DHT22;28750;59.842;17.584;2024-01-15T05:14:03;-4.80;1.00
43143;DHT22;28750;59.842;17.584;2024-01-15T05:16:30;-4.80;3.00
43143;DHT22;28750;59.842;17.584;2024-01-15T05:18:57;-4.90;1.00
43143;DHT22;28750;59.842;17.584;2024-01-15T05:21:24;-4.90;19.50
43143;DHT22;28750;59.842;17.584;2024-01-15T05:23:53;-4.90;17.30
43143;DHT22;28750;59.842;17.584;2024-01-15T05:26:20;-4.90;1.00
43143;DHT22;28750;59.842;17.584;2024-01-15T05:28:47;-4.90;1.00
43143;DHT22;28750;59.842;17.584;2024-01-15T05:31:14;-4.80;1.00
43143;DHT22;28750;59.842;17.584;2024-01-15T05:33:41;-4.90;1.00
43143;DHT22;28750;59.842;17.584;2024-01-15T05:36:08;-4.90;1.00
43143;DHT22;28750;59.842;17.584;2024-01-15T05:38:35;-4.80;1.00
43143;DHT22;28750;59.842;17.584;2024-01-15T05:41:03;-4.90;1.00
43143;DHT22;28750;59.842;17.584;2024-01-15T05:43:30;-4.90;1.00
43143;DHT22;28750;59.842;17.584;2024-01-15T05:45:57;-4.90;1.00
43143;DHT22;28750;59.842;17.584;2024-01-15T05:48:24;-4.90;1.00
43143;DHT22;28750;59.842;17.584;2024-01-15T05:50:51;-4.90;1.00
43143;DHT22;28750;59.842;17.584;2024-01-15T05:53:18;-4.90;99.90
43143;DHT22;28750;59.842;17.584;2024-01-15T05:55:45;-4.90;99.90
43143;DHT22;28750;59.842;17.584;2024-01-15T05:58:12;-4.90;99.90
43143;DHT22;28750;59.842;17.584;2024-01-15T06:00:39;-4.90;99.90
43143;DHT22;28750;59.842;17.584;2024-01-15T06:03:06;-4.90;99.90
43143;DHT22;28750;59.842;17.584;2024-01-15T06:05:34;-5.00;99.90
43143;DHT22;28750;59.842;17.584;2024-01-15T06:08:01;-5.00;99.90
43143;DHT22;28750;59.842;17.584;2024-01-15T06:10:28;-4.90;99.90
43143;DHT22;28750;59.842;17.584;2024-01-15T06:12:55;-4.90;99.90
43143;DHT22;28750;59.842;17.584;2024-01-15T06:15:22;-4.90;99.90
43143;DHT22;28750;59.842;17.584;2024-01-15T06:17:49;-4.90;99.90
43143;DHT22;28750;59.842;17.584;2024-01-15T06:20:16;-4.90;99.90
43143;DHT22;28750;59.842;17.584;2024-01-15T06:22:43;-4.90;99.90
43143;DHT22;28750;59.842;17.584;2024-01-15T06:25:10;-4.90;99.90
43143;DHT22;28750;59.842;17.584;2024-01-15T06:27:37;-4.90;99.90
43143;DHT22;28750;59.842;17.584;2024-01-15T06:30:05;-4.90;99.90
43143;DHT22;28750;59.842;17.584;2024-01-15T06:32:32;-4.90;99.90
43143;DHT22;28750;59.842;17.584;2024-01-15T06:34:59;-4.90;99.90
43143;DHT22;28750;59.842;17.584;2024-01-15T06:37:26;-4.90;99.90
43143;DHT22;28750;59.842;17.584;2024-01-15T06:39:53;-4.90;99.90
43143;DHT22;28750;59.842;17.584;2024-01-15T06:42:20;-4.90;99.90
43143;DHT22;28750;59.842;17.584;2024-01-15T06:44:48;-4.90;99.90
43143;DHT22;28750;59.842;17.584;2024-01-15T06:47:15;-4.90;99.90
43143;DHT22;28750;59.842;17.584;2024-01-15T06:49:43;-4.90;99.90
43143;DHT22;28750;59.842;17.584;2024-01-15T06:52:10;-4.90;99.90
43143;DHT22;28750;59.842;17.584;2024-01-15T06:54:38;-4.90;99.90
43143;DHT22;28750;59.842;17.584;2024-01-15T06:57:05;-4.90;99.90
43143;DHT22;28750;59.842;17.584;2024-01-15T06:59:34;-5.00;99.90
43143;DHT22;28750;59.842;17.584;2024-01-15T07:02:01;-5.00;99.90
43143;DHT22;28750;59.842;17.584;2024-01-15T07:04:28;-5.00;99.90
43143;DHT22;28750;59.842;17.584;2024-01-15T07:06:55;-5.00;99.90
43143;DHT22;28750;59.842;17.584;2024-01-15T07:09:23;-4.90;99.90
43143;DHT22;28750;59.842;17.584;2024-01-15T07:11:50;-5.00;99.90
43143;DHT22;28750;59.842;17.584;2024-01-15T07:14:17;-5.00;99.90
43143;DHT22;28750;59.842;17.584;2024-01-15T07:16:44;-5.00;99.90
43143;DHT22;28750;59.842;17.584;2024-01-15T07:19:11;-5.00;99.90
43143;DHT22;28750;59.842;17.584;2024-01-15T07:21:39;-5.00;99.90
43143;DHT22;28750;59.842;17.584;2024-01-15T07:24:08;-5.00;99.90
43143;DHT22;28750;59.842;17.584;2024-01-15T07:26:36;-5.00;99.90
43143;DHT22;28750;59.842;17.584;2024-01-15T07:29:03;-5.00;99.90
43143;DHT22;28750;59.842;17.584;2024-01-15T07:31:31;-5.00;1.00
43143;DHT22;28750;59.842;17.584;2024-01-15T07:33:58;-5.00;99.90
43143;DHT22;28750;59.842;17.584;2024-01-15T07:36:25;-5.10;99.90
43143;DHT22;28750;59.842;17.584;2024-01-15T07:38:52;-5.00;99.90
43143;DHT22;28750;59.842;17.584;2024-01-15T07:41:20;-5.00;99.90
43143;DHT22;28750;59.842;17.584;2024-01-15T07:43:47;-5.00;99.90
43143;DHT22;28750;59.842;17.584;2024-01-15T07:46:14;-5.00;99.90
43143;DHT22;28750;59.842;17.584;2024-01-15T07:48:41;-5.00;99.90
43143;DHT22;28750;59.842;17.584;2024-01-15T07:51:09;-5.00;99.90
43143;DHT22;28750;59.842;17.584;2024-01-15T07:53:36;-5.00;99.90
43143;DHT22;28750;59.842;17.584;2024-01-15T07:56:03;-5.00;99.80
43143;DHT22;28750;59.842;17.584;2024-01-15T07:58:30;-5.00;99.90
43143;DHT22;28750;59.842;17.584;2024-01-15T08:00:57;-5.00;99.90
43143;DHT22;28750;59.842;17.584;2024-01-15T08:03:24;-5.00;99.90
43143;DHT22;28750;59.842;17.584;2024-01-15T08:05:52;-5.00;99.90
43143;DHT22;28750;59.842;17.584;2024-01-15T08:08:20;-5.00;99.90
43143;DHT22;28750;59.842;17.584;2024-01-15T08:10:49;-5.00;99.90
43143;DHT22;28750;59.842;17.584;2024-01-15T08:13:16;-5.00;99.90
43143;DHT22;28750;59.842;17.584;2024-01-15T08:15:43;-5.00;99.90
43143;DHT22;28750;59.842;17.584;2024-01-15T08:18:10;-5.00;97.70
43143;DHT22;28750;59.842;17.584;2024-01-15T08:20:37;-5.00;99.90
43143;DHT22;28750;59.842;17.584;2024-01-15T08:23:04;-5.00;94.20
43143;DHT22;28750;59.842;17.584;2024-01-15T08:25:31;-5.10;68.40
43143;DHT22;28750;59.842;17.584;2024-01-15T08:27:59;-5.00;91.90
43143;DHT22;28750;59.842;17.584;2024-01-15T08:30:26;-5.00;99.90
43143;DHT22;28750;59.842;17.584;2024-01-15T08:32:54;-5.00;97.60
43143;DHT22;28750;59.842;17.584;2024-01-15T08:35:21;-5.00;92.00
43143;DHT22;28750;59.842;17.584;2024-01-15T08:37:50;-5.00;17.50
43143;DHT22;28750;59.842;17.584;2024-01-15T08:40:18;-5.00;1.00
43143;DHT22;28750;59.842;17.584;2024-01-15T08:42:45;-5.00;1.00
43143;DHT22;28750;59.842;17.584;2024-01-15T08:45:12;-5.10;1.00
43143;DHT22;28750;59.842;17.584;2024-01-15T08:47:39;-5.10;12.20
43143;DHT22;28750;59.842;17.584;2024-01-15T08:50:07;-5.10;16.50
43143;DHT22;28750;59.842;17.584;2024-01-15T08:52:36;-5.10;26.10
43143;DHT22;28750;59.842;17.584;2024-01-15T08:55:04;-5.00;6.90
43143;DHT22;28750;59.842;17.584;2024-01-15T08:57:32;-5.10;1.00
43143;DHT22;28750;59.842;17.584;2024-01-15T09:00:00;-5.10;99.90
43143;DHT22;28750;59.842;17.584;2024-01-15T09:02:27;-5.10;1.00
43143;DHT22;28750;59.842;17.584;2024-01-15T09:04:54;-5.10;99.90
43143;DHT22;28750;59.842;17.584;2024-01-15T09:07:21;-5.20;99.90
43143;DHT22;28750;59.842;17.584;2024-01-15T09:09:50;-5.20;99.90
43143;DHT22;28750;59.842;17.584;2024-01-15T09:12:17;-5.20;99.90
43143;DHT22;28750;59.842;17.584;2024-01-15T09:14:46;-5.20;99.90
43143;DHT22;28750;59.842;17.584;2024-01-15T09:17:13;-5.30;99.90
43143;DHT22;28750;59.842;17.584;2024-01-15T09:19:41;-5.20;99.90
43143;DHT22;28750;59.842;17.584;2024-01-15T09:22:08;-5.30;99.90
43143;DHT22;28750;59.842;17.584;2024-01-15T09:24:35;-5.20;99.90
43143;DHT22;28750;59.842;17.584;2024-01-15T09:27:02;-5.20;45.40
43143;DHT22;28750;59.842;17.584;2024-01-15T09:29:30;-5.20;1.00
43143;DHT22;28750;59.842;17.584;2024-01-15T09:31:57;-5.20;3.50
43143;DHT22;28750;59.842;17.584;2024-01-15T09:34:24;-5.10;1.00
43143;DHT22;28750;59.842;17.584;2024-01-15T09:36:51;-5.20;1.00
43143;DHT22;28750;59.842;17.584;2024-01-15T09:39:18;-5.20;99.90
43143;DHT22;28750;59.842;17.584;2024-01-15T09:41:46;-5.20;99.90
43143;DHT22;28750;59.842;17.584;2024-01-15T09:44:16;-5.20;99.90
43143;DHT22;28750;59.842;17.584;2024-01-15T09:46:44;-5.20;1.00
43143;DHT22;28750;59.842;17.584;2024-01-15T09:49:11;-5.20;99.90
43143;DHT22;28750;59.842;17.584;2024-01-15T09:51:39;-5.10;99.90
43143;DHT22;28750;59.842;17.584;2024-01-15T09:54:06;-5.10;99.90
43143;DHT22;28750;59.842;17.584;2024-01-15T09:56:34;-5.20;99.90
43143;DHT22;28750;59.842;17.584;2024-01-15T09:59:02;-5.10;99.90
43143;DHT22;28750;59.842;17.584;2024-01-15T10:01:32;-5.10;99.90
43143;DHT22;28750;59.842;17.584;2024-01-15T10:03:59;-5.10;99.90
43143;DHT22;28750;59.842;17.584;2024-01-15T10:06:27;-5.10;99.90
43143;DHT22;28750;59.842;17.584;2024-01-15T10:08:56;-5.20;99.90
43143;DHT22;28750;59.842;17.584;2024-01-15T10:11:25;-5.20;99.90
43143;DHT22;28750;59.842;17.584;2024-01-15T10:13:52;-5.20;99.90
43143;DHT22;28750;59.842;17.584;2024-01-15T10:16:22;-5.20;99.90
43143;DHT22;28750;59.842;17.584;2024-01-15T10:18:50;-5.20;99.90
43143;DHT22;28750;59.842;17.584;2024-01-15T10:21:18;-5.30;1.00
43143;DHT22;28750;59.842;17.584;2024-01-15T10:23:45;-5.30;99.90
43143;DHT22;28750;59.842;17.584;2024-01-15T10:26:12;-5.30;1.00
43143;DHT22;28750;59.842;17.584;2024-01-15T10:28:40;-5.40;1.00
43143;DHT22;28750;59.842;17.584;2024-01-15T10:31:08;-5.40;1.00
43143;DHT22;28750;59.842;17.584;2024-01-15T10:33:35;-5.50;1.00
43143;DHT22;28750;59.842;17.584;2024-01-15T10:36:09;-5.40;4.60
43143;DHT22;28750;59.842;17.584;2024-01-15T10:38:36;-5.40;64.60
43143;DHT22;28750;59.842;17.584;2024-01-15T10:41:03;-5.50;40.40
43143;DHT22;28750;59.842;17.584;2024-01-15T10:43:31;-5.50;99.90
43143;DHT22;28750;59.842;17.584;2024-01-15T10:46:00;-5.50;99.90
43143;DHT22;28750;59.842;17.584;2024-01-15T10:48:28;-5.50;99.90
43143;DHT22;28750;59.842;17.584;2024-01-15T10:50:57;-5.40;99.90
43143;DHT22;28750;59.842;17.584;2024-01-15T10:53:25;-5.40;99.90
43143;DHT22;28750;59.842;17.584;2024-01-15T10:55:53;-5.40;99.90
43143;DHT22;28750;59.842;17.584;2024-01-15T10:58:21;-5.50;99.90
43143;DHT22;28750;59.842;17.584;2024-01-15T11:00:49;-5.50;99.90
43143;DHT22;28750;59.842;17.584;2024-01-15T11:03:16;-5.50;99.90
43143;DHT22;28750;59.842;17.584;2024-01-15T11:05:45;-5.50;99.90
43143;DHT22;28750;59.842;17.584;2024-01-15T11:08:13;-5.40;99.90
43143;DHT22;28750;59.842;17.584;2024-01-15T11:10:50;-5.30;99.90
43143;DHT22;28750;59.842;17.584;2024-01-15T11:16:09;-5.30;99.90
43143;DHT22;28750;59.842;17.584;2024-01-15T11:21:26;-5.30;99.90
43143;DHT22;28750;59.842;17.584;2024-01-15T11:23:59;-5.20;99.90
43143;DHT22;28750;59.842;17.584;2024-01-15T11:29:08;-5.20;1.00
43143;DHT22;28750;59.842;17.584;2024-01-15T11:34:10;-5.10;99.90
43143;DHT22;28750;59.842;17.584;2024-01-15T11:41:58;-5.00;99.90
43143;DHT22;28750;59.842;17.584;2024-01-15T11:44:26;-5.10;1.00
43143;DHT22;28750;59.842;17.584;2024-01-15T11:52:18;-5.10;1.00
43143;DHT22;28750;59.842;17.584;2024-01-15T11:57:50;-5.00;1.00
43143;DHT22;28750;59.842;17.584;2024-01-15T12:00:18;-5.10;1.00
43143;DHT22;28750;59.842;17.584;2024-01-15T12:02:46;-5.00;1.00
43143;DHT22;28750;59.842;17.584;2024-01-15T12:05:15;-5.10;1.00
43143;DHT22;28750;59.842;17.584;2024-01-15T12:07:44;-5.10;1.00
43143;DHT22;28750;59.842;17.584;2024-01-15T12:10:13;-5.10;99.90
43143;DHT22;28750;59.842;17.584;2024-01-15T12:15:27;-5.00;99.90
43143;DHT22;28750;59.842;17.584;2024-01-15T12:17:59;-5.10;99.90
43143;DHT22;28750;59.842;17.584;2024-01-15T12:20:31;-5.10;99.90
43143;DHT22;28750;59.842;17.584;2024-01-15T12:23:00;-5.10;99.90
43143;DHT22;28750;59.842;17.584;2024-01-15T12:25:29;-5.10;99.90
43143;DHT22;28750;59.842;17.584;2024-01-15T12:27:57;-5.00;99.90
43143;DHT22;28750;59.842;17.584;2024-01-15T12:30:26;-5.10;99.90
43143;DHT22;28750;59.842;17.584;2024-01-15T12:32:54;-5.10;99.90
43143;DHT22;28750;59.842;17.584;2024-01-15T12:35:24;-5.10;99.90
43143;DHT22;28750;59.842;17.584;2024-01-15T12:37:53;-5.10;99.90
43143;DHT22;28750;59.842;17.584;2024-01-15T12:40:22;-5.10;1.00
43143;DHT22;28750;59.842;17.584;2024-01-15T12:42:49;-5.10;1.00
43143;DHT22;28750;59.842;17.584;2024-01-15T12:45:17;-5.20;68.30
43143;DHT22;28750;59.842;17.584;2024-01-15T12:47:45;-5.30;99.90
43143;DHT22;28750;59.842;17.584;2024-01-15T12:50:13;-5.30;99.90
43143;DHT22;28750;59.842;17.584;2024-01-15T12:52:41;-5.30;99.90
43143;DHT22;28750;59.842;17.584;2024-01-15T12:55:09;-5.30;1.00
43143;DHT22;28750;59.842;17.584;2024-01-15T12:57:37;-5.40;1.00
43143;DHT22;28750;59.842;17.584;2024-01-15T13:00:05;-5.40;15.60
43143;DHT22;28750;59.842;17.584;2024-01-15T13:02:40;-5.40;91.00
43143;DHT22;28750;59.842;17.584;2024-01-15T13:05:11;-5.40;99.90
43143;DHT22;28750;59.842;17.584;2024-01-15T13:07:39;-5.40;99.90
43143;DHT22;28750;59.842;17.584;2024-01-15T13:10:06;-5.40;99.90
43143;DHT22;28750;59.842;17.584;2024-01-15T13:12:35;-5.40;99.90
43143;DHT22;28750;59.842;17.584;2024-01-15T13:15:02;-5.50;99.90
43143;DHT22;28750;59.842;17.584;2024-01-15T13:17:30;-5.50;99.90
43143;DHT22;28750;59.842;17.584;2024-01-15T13:19:58;-5.50;99.90
43143;DHT22;28750;59.842;17.584;2024-01-15T13:22:25;-5.50;99.90
43143;DHT22;28750;59.842;17.584;2024-01-15T13:24:57;-5.60;99.90
43143;DHT22;28750;59.842;17.584;2024-01-15T13:27:24;-5.70;99.90
43143;DHT22;28750;59.842;17.584;2024-01-15T13:29:51;-5.60;99.90
43143;DHT22;28750;59.842;17.584;2024-01-15T13:32:25;-5.60;99.90
43143;DHT22;28750;59.842;17.584;2024-01-15T13:34:53;-5.90;99.90
43143;DHT22;28750;59.842;17.584;2024-01-15T13:37:21;-6.00;99.90
43143;DHT22;28750;59.842;17.584;2024-01-15T13:39:50;-6.10;99.90
43143;DHT22;28750;59.842;17.584;2024-01-15T13:42:18;-6.20;99.90
43143;DHT22;28750;59.842;17.584;2024-01-15T13:44:47;-6.20;99.90
43143;DHT22;28750;59.842;17.584;2024-01-15T13:47:14;-6.20;99.90
43143;DHT22;28750;59.842;17.584;2024-01-15T13:49:41;-6.20;99.90
43143;DHT22;28750;59.842;17.584;2024-01-15T13:52:08;-6.20;99.90
43143;DHT22;28750;59.842;17.584;2024-01-15T13:54:35;-6.30;99.90
43143;DHT22;28750;59.842;17.584;2024-01-15T13:57:03;-6.30;99.90
43143;DHT22;28750;59.842;17.584;2024-01-15T13:59:32;-6.40;99.90
43143;DHT22;28750;59.842;17.584;2024-01-15T14:01:59;-6.30;99.90
43143;DHT22;28750;59.842;17.584;2024-01-15T14:04:26;-6.40;99.90
43143;DHT22;28750;59.842;17.584;2024-01-15T14:06:53;-6.50;99.90
43143;DHT22;28750;59.842;17.584;2024-01-15T14:09:20;-6.30;99.90
43143;DHT22;28750;59.842;17.584;2024-01-15T14:11:48;-6.30;99.90
43143;DHT22;28750;59.842;17.584;2024-01-15T14:14:15;-6.40;99.90
43143;DHT22;28750;59.842;17.584;2024-01-15T14:16:42;-6.40;99.90
43143;DHT22;28750;59.842;17.584;2024-01-15T14:19:09;-6.40;99.90
43143;DHT22;28750;59.842;17.584;2024-01-15T14:21:36;-6.40;99.90
43143;DHT22;28750;59.842;17.584;2024-01-15T14:24:04;-6.50;99.90
43143;DHT22;28750;59.842;17.584;2024-01-15T14:26:31;-6.60;99.90
43143;DHT22;28750;59.842;17.584;2024-01-15T14:28:58;-6.60;99.90
43143;DHT22;28750;59.842;17.584;2024-01-15T14:31:25;-6.60;99.90
43143;DHT22;28750;59.842;17.584;2024-01-15T14:33:54;-6.70;99.90
43143;DHT22;28750;59.842;17.584;2024-01-15T14:36:21;-6.70;99.90
43143;DHT22;28750;59.842;17.584;2024-01-15T14:38:49;-6.70;99.90
43143;DHT22;28750;59.842;17.584;2024-01-15T14:41:16;-6.80;99.90
43143;DHT22;28750;59.842;17.584;2024-01-15T14:43:43;-6.90;99.90
43143;DHT22;28750;59.842;17.584;2024-01-15T14:46:11;-6.80;99.90
43143;DHT22;28750;59.842;17.584;2024-01-15T14:48:38;-6.90;99.90
43143;DHT22;28750;59.842;17.584;2024-01-15T14:51:05;-6.90;99.90
43143;DHT22;28750;59.842;17.584;2024-01-15T14:53:32;-7.00;99.90
43143;DHT22;28750;59.842;17.584;2024-01-15T14:56:01;-7.00;99.90
43143;DHT22;28750;59.842;17.584;2024-01-15T14:58:28;-7.00;99.90
43143;DHT22;28750;59.842;17.584;2024-01-15T15:00:55;-7.00;99.90
43143;DHT22;28750;59.842;17.584;2024-01-15T15:03:22;-7.00;99.90
43143;DHT22;28750;59.842;17.584;2024-01-15T15:05:50;-7.10;99.90
43143;DHT22;28750;59.842;17.584;2024-01-15T15:08:17;-7.10;99.90
43143;DHT22;28750;59.842;17.584;2024-01-15T15:10:44;-7.10;99.90
43143;DHT22;28750;59.842;17.584;2024-01-15T15:13:11;-7.20;99.90
43143;DHT22;28750;59.842;17.584;2024-01-15T15:15:38;-7.20;99.90
43143;DHT22;28750;59.842;17.584;2024-01-15T15:18:05;-7.30;99.90
43143;DHT22;28750;59.842;17.584;2024-01-15T15:20:32;-7.20;99.90
43143;DHT22;28750;59.842;17.584;2024-01-15T15:22:59;-7.30;99.90
43143;DHT22;28750;59.842;17.584;2024-01-15T15:25:26;-7.30;99.90
43143;DHT22;28750;59.842;17.584;2024-01-15T15:27:54;-7.30;99.90
43143;DHT22;28750;59.842;17.584;2024-01-15T15:30:21;-7.30;99.90
43143;DHT22;28750;59.842;17.584;2024-01-15T15:32:49;-7.40;99.90
43143;DHT22;28750;59.842;17.584;2024-01-15T15:35:17;-7.40;99.90
43143;DHT22;28750;59.842;17.584;2024-01-15T15:37:44;-7.40;99.90
43143;DHT22;28750;59.842;17.584;2024-01-15T15:40:11;-7.40;99.90
43143;DHT22;28750;59.842;17.584;2024-01-15T15:42:39;-7.50;99.90
43143;DHT22;28750;59.842;17.584;2024-01-15T15:45:06;-7.60;99.90
43143;DHT22;28750;59.842;17.584;2024-01-15T15:47:35;-7.70;99.90